createdAt,value
2022-11-30T00:02:00.283Z,4.60
2022-11-30T00:04:28.135Z,4.40
2022-11-30T00:06:57.422Z,4.60
2022-11-30T00:09:25.372Z,4.80
2022-11-30T00:11:53.217Z,4.60
2022-11-30T00:14:21.044Z,4.50
2022-11-30T00:16:50.355Z,4.50
2022-11-30T00:19:18.219Z,4.60
2022-11-30T00:21:46.081Z,4.60
2022-11-30T00:24:13.933Z,5.30
2022-11-30T00:26:41.783Z,4.90
2022-11-30T00:29:09.627Z,5.10
2022-11-30T00:31:37.459Z,4.70
2022-11-30T00:34:06.675Z,4.80
2022-11-30T00:36:34.509Z,5.00
2022-11-30T00:39:02.319Z,4.70
2022-11-30T00:41:30.168Z,4.60
2022-11-30T00:43:58.032Z,4.60
2022-11-30T00:46:25.926Z,4.60
2022-11-30T00:48:53.835Z,4.50
2022-11-30T00:51:23.062Z,4.50
2022-11-30T00:53:50.933Z,4.50
2022-11-30T00:56:18.808Z,4.50
2022-11-30T00:58:46.716Z,4.50
2022-11-30T01:01:14.839Z,4.50
2022-11-30T01:03:42.787Z,4.40
2022-11-30T01:06:10.876Z,4.30
2022-11-30T01:08:40.109Z,4.20
2022-11-30T01:11:09.328Z,4.30
2022-11-30T01:13:37.267Z,4.40
2022-11-30T01:16:10.226Z,4.10
2022-11-30T01:18:38.218Z,4.10
2022-11-30T01:21:07.704Z,4.20
2022-11-30T01:23:35.619Z,4.30
2022-11-30T01:26:04.876Z,4.30
2022-11-30T01:28:32.788Z,4.20
2022-11-30T01:31:01.208Z,4.20
2022-11-30T01:33:29.165Z,4.10
2022-11-30T01:36:01.320Z,4.30
2022-11-30T01:38:32.073Z,4.20
2022-11-30T01:40:59.944Z,4.10
2022-11-30T01:43:40.157Z,4.00
2022-11-30T01:46:15.890Z,4.20
2022-11-30T01:48:43.799Z,4.00
2022-11-30T01:51:11.650Z,4.00
2022-11-30T01:53:39.556Z,4.00
2022-11-30T01:56:08.152Z,3.90
2022-11-30T01:58:36.655Z,3.70
2022-11-30T02:01:06.150Z,3.90
2022-11-30T02:03:35.782Z,3.90
2022-11-30T02:06:03.656Z,3.90
2022-11-30T02:08:31.720Z,3.70
2022-11-30T02:11:01.091Z,3.70
2022-11-30T02:13:38.565Z,3.80
2022-11-30T02:16:12.692Z,3.80
2022-11-30T02:18:45.154Z,3.80
2022-11-30T02:21:14.248Z,3.80
2022-11-30T02:24:01.823Z,3.80
2022-11-30T02:26:51.966Z,3.70
2022-11-30T02:29:22.683Z,3.70
2022-11-30T02:31:52.487Z,3.90
2022-11-30T02:34:21.684Z,3.80
2022-11-30T02:36:49.547Z,3.50
2022-11-30T02:39:18.055Z,3.50
2022-11-30T02:41:45.922Z,3.60
2022-11-30T02:44:13.814Z,3.60
2022-11-30T02:46:52.926Z,3.50
2022-11-30T02:49:24.725Z,3.70
2022-11-30T02:51:52.599Z,3.70
2022-11-30T02:54:20.514Z,3.60
2022-11-30T02:56:48.551Z,3.60
2022-11-30T02:59:16.456Z,3.60
2022-11-30T03:01:45.741Z,3.80
2022-11-30T03:04:13.724Z,3.70
2022-11-30T03:06:41.602Z,3.60
2022-11-30T03:09:09.675Z,3.60
2022-11-30T03:11:37.624Z,3.60
2022-11-30T03:14:05.515Z,3.50
2022-11-30T03:16:33.506Z,3.30
2022-11-30T03:19:02.772Z,3.30
2022-11-30T03:21:30.624Z,3.50
2022-11-30T03:23:58.470Z,3.30
2022-11-30T03:26:26.374Z,3.40
2022-11-30T03:28:54.206Z,3.40
2022-11-30T03:31:22.117Z,3.40
2022-11-30T03:33:50.018Z,3.30
2022-11-30T03:36:19.231Z,3.30
2022-11-30T03:38:47.585Z,3.10
2022-11-30T03:41:17.255Z,3.10
2022-11-30T03:43:45.169Z,3.10
2022-11-30T03:46:13.117Z,3.20
2022-11-30T03:48:42.044Z,3.20
2022-11-30T03:51:10.337Z,3.10
2022-11-30T03:53:39.619Z,3.00
2022-11-30T03:56:09.875Z,3.00
2022-11-30T03:58:37.771Z,2.90
2022-11-30T04:01:06.901Z,3.10
2022-11-30T04:03:34.908Z,3.10
2022-11-30T04:06:02.977Z,3.10
2022-11-30T04:08:31.050Z,3.10
2022-11-30T04:11:01.069Z,2.90
2022-11-30T04:13:29.287Z,3.10
2022-11-30T04:15:57.202Z,3.10
2022-11-30T04:18:26.042Z,3.10
2022-11-30T04:20:54.081Z,3.20
2022-11-30T04:23:22.054Z,3.10
2022-11-30T04:25:49.995Z,3.10
2022-11-30T04:28:19.328Z,3.10
2022-11-30T04:30:47.275Z,3.10
2022-11-30T04:33:15.452Z,3.20
2022-11-30T04:35:43.727Z,3.30
2022-11-30T04:38:11.589Z,3.20
2022-11-30T04:40:40.776Z,3.20
2022-11-30T04:43:08.696Z,3.00
2022-11-30T04:45:37.980Z,3.00
2022-11-30T04:48:06.232Z,3.20
2022-11-30T04:50:34.128Z,3.20
2022-11-30T04:53:02.022Z,3.10
2022-11-30T04:55:29.923Z,3.10
2022-11-30T04:57:57.816Z,3.20
2022-11-30T05:00:25.888Z,3.10
2022-11-30T05:02:56.367Z,3.10
2022-11-30T05:05:24.252Z,3.20
2022-11-30T05:07:52.419Z,3.20
2022-11-30T05:10:20.530Z,3.20
2022-11-30T05:12:48.392Z,3.20
2022-11-30T05:15:16.267Z,3.10
2022-11-30T05:17:44.149Z,3.20
2022-11-30T05:20:13.608Z,3.30
2022-11-30T05:22:41.485Z,3.20
2022-11-30T05:25:09.690Z,3.20
2022-11-30T05:27:37.686Z,3.20
2022-11-30T05:30:06.648Z,3.20
2022-11-30T05:32:34.575Z,3.20
2022-11-30T05:35:02.445Z,3.10
2022-11-30T05:37:31.662Z,3.10
2022-11-30T05:39:59.507Z,3.00
2022-11-30T05:42:28.194Z,3.10
2022-11-30T05:44:56.059Z,3.10
2022-11-30T05:47:23.905Z,3.20
2022-11-30T05:49:51.747Z,3.20
2022-11-30T05:52:19.643Z,3.50
2022-11-30T05:54:49.090Z,5.00
2022-11-30T05:57:17.106Z,4.40
2022-11-30T05:59:45.105Z,4.10
2022-11-30T06:02:13.136Z,3.90
2022-11-30T06:04:41.078Z,3.60
2022-11-30T06:07:11.809Z,3.60
2022-11-30T06:09:39.679Z,3.60
2022-11-30T06:12:09.417Z,3.60
2022-11-30T06:14:37.258Z,3.50
2022-11-30T06:17:05.109Z,3.30
2022-11-30T06:19:32.953Z,3.40
2022-11-30T06:22:00.802Z,3.30
2022-11-30T06:24:28.710Z,3.30
2022-11-30T06:26:56.620Z,3.30
2022-11-30T06:29:25.934Z,3.30
2022-11-30T06:31:53.923Z,3.20
2022-11-30T06:34:21.956Z,3.20
2022-11-30T06:36:50.232Z,3.20
2022-11-30T06:39:31.391Z,3.10
2022-11-30T06:42:06.405Z,3.10
2022-11-30T06:44:35.783Z,3.00
2022-11-30T06:47:03.733Z,3.00
2022-11-30T06:49:31.708Z,3.10
2022-11-30T06:51:59.686Z,3.20
2022-11-30T06:54:27.679Z,3.20
2022-11-30T06:56:56.751Z,3.30
2022-11-30T06:59:24.916Z,3.20
2022-11-30T07:01:54.177Z,3.00
2022-11-30T07:04:22.122Z,3.00
2022-11-30T07:06:50.094Z,3.10
2022-11-30T07:09:18.851Z,3.20
2022-11-30T07:11:46.780Z,3.20
2022-11-30T07:14:14.812Z,3.20
2022-11-30T07:16:42.813Z,3.10
2022-11-30T07:19:12.218Z,3.30
2022-11-30T07:21:40.175Z,3.10
2022-11-30T07:24:25.851Z,3.10
2022-11-30T07:26:54.056Z,3.10
2022-11-30T07:29:21.988Z,3.20
2022-11-30T07:31:52.141Z,3.40
2022-11-30T07:34:21.778Z,3.40
2022-11-30T07:36:49.836Z,3.40
2022-11-30T07:39:17.776Z,3.30
2022-11-30T07:41:45.731Z,3.30
2022-11-30T07:44:13.670Z,3.20
2022-11-30T07:46:41.580Z,3.30
2022-11-30T07:49:10.555Z,3.30
2022-11-30T07:51:39.895Z,3.40
2022-11-30T07:54:07.944Z,3.30
2022-11-30T07:56:35.906Z,3.30
2022-11-30T07:59:03.951Z,3.30
2022-11-30T08:01:32.916Z,3.30
2022-11-30T08:04:01.070Z,3.30
2022-11-30T08:06:29.744Z,3.30
2022-11-30T08:09:00.399Z,3.50
2022-11-30T08:11:30.112Z,3.50
2022-11-30T08:13:58.174Z,3.50
2022-11-30T08:16:27.192Z,3.40
2022-11-30T08:18:56.474Z,3.30
2022-11-30T08:21:24.506Z,3.30
2022-11-30T08:23:53.284Z,3.40
2022-11-30T08:26:23.998Z,3.50
2022-11-30T08:28:52.172Z,3.40
2022-11-30T08:31:21.318Z,3.40
2022-11-30T08:33:49.864Z,3.50
2022-11-30T08:36:19.080Z,3.70
2022-11-30T08:38:47.099Z,3.60
2022-11-30T08:41:16.109Z,3.50
2022-11-30T08:43:45.490Z,3.50
2022-11-30T08:46:50.828Z,3.50
2022-11-30T08:49:20.393Z,3.60
2022-11-30T08:54:39.117Z,3.60
2022-11-30T08:57:07.073Z,3.50
2022-11-30T08:59:36.333Z,3.80
2022-11-30T09:02:04.378Z,4.70
2022-11-30T09:04:32.398Z,5.10
2022-11-30T09:07:00.912Z,4.90
2022-11-30T09:09:29.147Z,4.50
2022-11-30T09:11:57.008Z,4.20
2022-11-30T09:14:24.965Z,4.00
2022-11-30T09:16:55.571Z,3.80
2022-11-30T09:19:23.557Z,3.80
2022-11-30T09:21:52.573Z,3.80
2022-11-30T09:24:20.962Z,3.90
2022-11-30T09:26:48.959Z,4.10
2022-11-30T09:29:17.050Z,4.00
2022-11-30T09:31:44.955Z,3.70
2022-11-30T09:34:14.270Z,3.60
2022-11-30T09:36:42.239Z,3.70
2022-11-30T09:39:11.058Z,3.60
2022-11-30T09:42:04.026Z,3.90
2022-11-30T09:44:35.750Z,3.80
2022-11-30T09:47:05.723Z,3.80
2022-11-30T09:49:35.835Z,3.70
2022-11-30T09:52:04.804Z,3.90
2022-11-30T09:54:37.091Z,3.90
2022-11-30T09:57:05.324Z,3.90
2022-11-30T09:59:33.313Z,4.00
2022-11-30T10:02:01.716Z,3.90
2022-11-30T10:04:30.357Z,3.90
2022-11-30T10:07:04.093Z,3.90
2022-11-30T10:09:39.877Z,3.80
2022-11-30T10:12:10.125Z,4.00
2022-11-30T10:15:02.786Z,4.00
2022-11-30T10:17:45.519Z,4.10
2022-11-30T10:20:22.604Z,4.10
2022-11-30T10:23:10.802Z,4.00
2022-11-30T10:25:42.801Z,4.00
2022-11-30T10:28:44.841Z,3.90
2022-11-30T10:31:05.441Z,4.00
2022-11-30T10:33:38.651Z,3.90
2022-11-30T10:36:10.018Z,4.00
2022-11-30T10:38:41.974Z,4.10
2022-11-30T10:41:12.446Z,4.20
2022-11-30T10:43:43.564Z,4.10
2022-11-30T10:46:17.213Z,4.00
2022-11-30T10:48:47.251Z,4.10
2022-11-30T10:51:15.189Z,4.10
2022-11-30T10:53:44.448Z,4.00
2022-11-30T10:56:12.986Z,4.10
2022-11-30T10:58:42.058Z,4.10
2022-11-30T11:01:11.409Z,4.20
2022-11-30T11:03:39.482Z,4.10
2022-11-30T11:06:11.872Z,4.20
2022-11-30T11:08:39.985Z,4.20
2022-11-30T11:11:26.608Z,4.20
2022-11-30T11:13:54.467Z,4.10
2022-11-30T11:16:22.406Z,4.10
2022-11-30T11:18:54.198Z,3.90
2022-11-30T11:21:22.796Z,3.80
2022-11-30T11:23:52.097Z,4.10
2022-11-30T11:26:22.205Z,4.10
2022-11-30T11:28:51.388Z,4.10
2022-11-30T11:31:33.385Z,4.10
2022-11-30T11:34:01.352Z,4.00
2022-11-30T11:36:30.128Z,4.00
2022-11-30T11:38:58.165Z,4.00
2022-11-30T11:41:28.781Z,4.00
2022-11-30T11:44:02.718Z,4.00
2022-11-30T11:46:31.158Z,4.00
2022-11-30T11:48:59.939Z,3.90
2022-11-30T11:51:31.643Z,4.10
2022-11-30T11:53:59.893Z,4.00
2022-11-30T11:56:31.850Z,4.00
2022-11-30T11:59:00.627Z,4.10
2022-11-30T12:01:40.642Z,4.00
2022-11-30T12:04:37.332Z,4.00
2022-11-30T12:07:13.752Z,3.90
2022-11-30T12:09:47.907Z,3.90
2022-11-30T12:12:17.269Z,4.10
2022-11-30T12:14:45.136Z,4.00
2022-11-30T12:17:26.666Z,4.00
2022-11-30T12:19:58.180Z,3.90
2022-11-30T12:22:37.714Z,4.00
2022-11-30T12:25:19.892Z,4.00
2022-11-30T12:27:54.360Z,4.00
2022-11-30T12:30:23.556Z,4.00
2022-11-30T12:33:18.630Z,3.90
2022-11-30T12:35:57.942Z,4.40
2022-11-30T12:38:32.052Z,4.10
2022-11-30T12:41:02.104Z,4.30
2022-11-30T12:43:36.559Z,4.00
2022-11-30T12:46:07.877Z,4.00
2022-11-30T12:48:39.258Z,4.10
2022-11-30T12:51:12.888Z,4.20
2022-11-30T12:53:43.039Z,4.10
2022-11-30T12:56:18.236Z,4.10
2022-11-30T12:58:50.142Z,4.00
2022-11-30T13:01:26.706Z,4.00
2022-11-30T13:03:59.690Z,4.10
2022-11-30T13:06:30.095Z,4.10
2022-11-30T13:08:59.931Z,3.90
2022-11-30T13:11:30.290Z,4.00
2022-11-30T13:14:00.552Z,4.00
2022-11-30T13:16:28.610Z,4.00
2022-11-30T13:18:59.721Z,3.80
2022-11-30T13:21:29.813Z,3.70
2022-11-30T13:24:00.928Z,3.70
2022-11-30T13:26:30.183Z,3.80
2022-11-30T13:29:21.608Z,3.80
2022-11-30T13:31:52.903Z,3.80
2022-11-30T13:34:25.347Z,3.90
2022-11-30T13:36:53.232Z,3.80
2022-11-30T13:39:24.977Z,3.80
2022-11-30T13:42:14.071Z,3.90
2022-11-30T13:44:43.322Z,3.90
2022-11-30T13:47:18.041Z,3.90
2022-11-30T13:49:45.966Z,4.00
2022-11-30T13:52:22.518Z,3.90
2022-11-30T13:54:53.862Z,4.00
2022-11-30T13:58:04.616Z,4.00
2022-11-30T14:01:02.840Z,3.90
2022-11-30T14:03:31.404Z,3.80
2022-11-30T14:05:59.287Z,3.80
2022-11-30T14:08:36.996Z,3.90
2022-11-30T14:11:36.403Z,3.90
2022-11-30T14:14:43.475Z,4.00
2022-11-30T14:17:22.956Z,4.00
2022-11-30T14:19:52.189Z,4.00
2022-11-30T14:22:20.162Z,4.10
2022-11-30T14:24:48.757Z,4.10
2022-11-30T14:27:19.185Z,4.00
2022-11-30T14:29:53.104Z,3.90
2022-11-30T14:32:27.622Z,3.90
2022-11-30T14:34:57.250Z,3.90
2022-11-30T14:37:26.426Z,3.70
2022-11-30T14:39:56.574Z,3.70
2022-11-30T14:42:25.894Z,3.70
2022-11-30T14:44:53.819Z,3.60
2022-11-30T14:47:24.954Z,3.60
2022-11-30T14:49:53.996Z,3.60
2022-11-30T14:52:34.862Z,3.60
2022-11-30T14:55:13.356Z,3.50
2022-11-30T14:57:44.932Z,3.60
2022-11-30T15:00:17.246Z,3.50
2022-11-30T15:02:46.587Z,3.30
2022-11-30T15:05:15.990Z,3.40
2022-11-30T15:07:44.152Z,3.60
2022-11-30T15:10:13.603Z,3.60
2022-11-30T15:12:41.631Z,3.80
2022-11-30T15:15:19.543Z,3.70
2022-11-30T15:17:54.456Z,3.60
2022-11-30T15:20:27.721Z,3.80
2022-11-30T15:22:57.646Z,3.60
2022-11-30T15:25:27.128Z,3.60
2022-11-30T15:27:56.124Z,3.60
2022-11-30T15:30:24.012Z,3.50
2022-11-30T15:32:53.387Z,3.60
2022-11-30T15:35:22.815Z,3.50
2022-11-30T15:37:50.706Z,3.50
2022-11-30T15:40:25.930Z,3.40
2022-11-30T15:42:53.797Z,3.40
2022-11-30T15:45:23.705Z,3.60
2022-11-30T15:47:53.002Z,3.60
2022-11-30T15:50:38.180Z,3.40
2022-11-30T15:53:24.902Z,3.40
2022-11-30T15:55:53.582Z,3.50
2022-11-30T15:58:36.979Z,3.40
2022-11-30T16:01:10.236Z,3.50
2022-11-30T16:04:00.984Z,3.50
2022-11-30T16:06:29.604Z,3.60
2022-11-30T16:08:57.598Z,3.40
2022-11-30T16:11:25.679Z,3.40
2022-11-30T16:13:53.621Z,3.30
2022-11-30T16:16:23.940Z,3.30
2022-11-30T16:18:52.023Z,3.20
2022-11-30T16:21:21.427Z,3.30
2022-11-30T16:23:49.354Z,3.50
2022-11-30T16:29:05.751Z,3.20
2022-11-30T16:31:33.682Z,3.40
2022-11-30T16:34:01.573Z,3.40
2022-11-30T16:36:30.848Z,3.40
2022-11-30T16:38:58.734Z,3.40
2022-11-30T16:41:27.451Z,3.40
2022-11-30T16:43:56.063Z,3.40
2022-11-30T16:46:24.723Z,3.40
2022-11-30T16:48:52.842Z,3.30
2022-11-30T16:51:22.038Z,3.40
2022-11-30T16:53:51.263Z,3.40
2022-11-30T16:56:19.138Z,3.50
2022-11-30T16:58:47.123Z,3.50
2022-11-30T17:01:17.411Z,3.40
2022-11-30T17:03:47.571Z,3.30
2022-11-30T17:06:17.191Z,3.20
2022-11-30T17:08:45.079Z,3.30
2022-11-30T17:11:19.152Z,3.40
2022-11-30T17:13:47.163Z,3.50
2022-11-30T17:16:15.325Z,3.20
2022-11-30T17:18:43.487Z,3.10
2022-11-30T17:21:15.596Z,3.20
2022-11-30T17:23:43.565Z,3.10
2022-11-30T17:26:11.880Z,3.10
2022-11-30T17:28:42.231Z,3.00
2022-11-30T17:31:10.495Z,3.10
2022-11-30T17:33:41.294Z,3.10
2022-11-30T17:36:12.373Z,3.20
2022-11-30T17:38:40.334Z,3.20
2022-11-30T17:41:08.380Z,3.20
2022-11-30T17:43:37.095Z,3.10
2022-11-30T17:46:07.268Z,3.10
2022-11-30T17:48:35.215Z,3.10
2022-11-30T17:51:03.289Z,3.10
2022-11-30T17:53:31.303Z,3.20
2022-11-30T17:56:03.360Z,3.20
2022-11-30T17:58:34.684Z,3.20
2022-11-30T18:01:04.095Z,3.20
2022-11-30T18:03:33.503Z,3.20
2022-11-30T18:06:01.655Z,3.50
2022-11-30T18:08:29.603Z,3.30
2022-11-30T18:10:57.487Z,3.20
2022-11-30T18:13:25.338Z,3.20
2022-11-30T18:15:53.212Z,3.30
2022-11-30T18:18:21.100Z,3.20
2022-11-30T18:20:50.364Z,3.20
2022-11-30T18:23:18.285Z,3.20
2022-11-30T18:25:46.136Z,3.10
2022-11-30T18:28:13.997Z,3.00
2022-11-30T18:30:41.950Z,3.00
2022-11-30T18:33:09.874Z,3.20
2022-11-30T18:35:37.731Z,3.10
2022-11-30T18:38:06.952Z,3.10
2022-11-30T18:40:35.168Z,3.10
2022-11-30T18:43:03.021Z,3.20
2022-11-30T18:45:33.602Z,3.20
2022-11-30T18:48:01.599Z,3.10
2022-11-30T18:50:29.745Z,3.10
2022-11-30T18:52:57.614Z,3.20
2022-11-30T18:55:26.943Z,3.30
2022-11-30T18:57:54.806Z,3.20
2022-11-30T19:00:24.385Z,3.30
2022-11-30T19:02:52.326Z,3.20
2022-11-30T19:05:32.505Z,3.00
2022-11-30T19:08:00.554Z,3.10
2022-11-30T19:10:29.916Z,3.00
2022-11-30T19:12:57.872Z,3.10
2022-11-30T19:15:25.818Z,3.00
2022-11-30T19:17:55.220Z,3.10
2022-11-30T19:20:23.130Z,3.10
2022-11-30T19:22:51.011Z,3.00
2022-11-30T19:25:19.228Z,3.00
2022-11-30T19:27:48.702Z,2.90
2022-11-30T19:30:16.946Z,3.10
2022-11-30T19:32:44.875Z,3.10
2022-11-30T19:35:12.748Z,3.10
2022-11-30T19:37:40.629Z,3.10
2022-11-30T19:40:09.511Z,3.10
2022-11-30T19:42:37.439Z,3.00
2022-11-30T19:45:07.968Z,3.00
2022-11-30T19:47:37.297Z,2.90
2022-11-30T19:50:05.444Z,2.80
2022-11-30T19:52:33.367Z,3.00
2022-11-30T19:55:01.552Z,2.80
2022-11-30T19:57:29.441Z,2.80
2022-11-30T19:59:57.343Z,2.80
2022-11-30T20:02:26.685Z,2.90
2022-11-30T20:04:54.697Z,2.90
2022-11-30T20:07:22.682Z,2.90
2022-11-30T20:09:50.639Z,2.80
2022-11-30T20:12:18.520Z,2.90
2022-11-30T20:14:48.153Z,2.90
2022-11-30T20:17:16.207Z,2.90
2022-11-30T20:19:45.432Z,2.90
2022-11-30T20:22:13.484Z,2.90
2022-11-30T20:24:41.361Z,3.10
2022-11-30T20:27:09.260Z,3.10
2022-11-30T20:29:37.328Z,3.10
2022-11-30T20:32:05.458Z,3.00
2022-11-30T20:34:35.924Z,3.00
2022-11-30T20:37:06.880Z,3.00
2022-11-30T20:39:34.789Z,2.90
2022-11-30T20:42:03.286Z,2.90
2022-11-30T20:44:31.221Z,2.90
2022-11-30T20:46:59.085Z,2.90
2022-11-30T20:49:27.034Z,2.90
2022-11-30T20:51:54.930Z,3.00
2022-11-30T20:54:24.401Z,3.00
2022-11-30T20:56:52.338Z,2.90
2022-11-30T20:59:23.639Z,3.00
2022-11-30T21:01:51.790Z,2.80
2022-11-30T21:04:19.695Z,2.80
2022-11-30T21:06:47.571Z,2.90
2022-11-30T21:09:15.772Z,2.70
2022-11-30T21:11:45.117Z,2.80
2022-11-30T21:14:13.015Z,2.70
2022-11-30T21:16:40.926Z,2.70
2022-11-30T21:19:10.618Z,2.70
2022-11-30T21:21:38.504Z,2.70
2022-11-30T21:24:07.838Z,2.80
2022-11-30T21:26:36.780Z,2.70
2022-11-30T21:29:07.274Z,2.70
2022-11-30T21:31:35.209Z,2.70
2022-11-30T21:34:03.203Z,2.70
2022-11-30T21:36:31.066Z,2.70
2022-11-30T21:39:04.859Z,2.80
2022-11-30T21:41:33.556Z,2.80
2022-11-30T21:44:01.456Z,2.80
2022-11-30T21:46:30.792Z,2.70
2022-11-30T21:48:58.752Z,2.80
2022-11-30T21:51:27.706Z,2.70
2022-11-30T21:53:56.900Z,2.80
2022-11-30T21:56:26.717Z,2.80
2022-11-30T21:58:54.698Z,2.90
2022-11-30T22:01:24.218Z,2.80
2022-11-30T22:03:54.331Z,2.70
2022-11-30T22:06:22.274Z,2.70
2022-11-30T22:08:50.186Z,2.80
2022-11-30T22:11:18.771Z,2.80
2022-11-30T22:13:46.910Z,2.60
2022-11-30T22:16:16.540Z,2.60
2022-11-30T22:18:44.686Z,2.60
2022-11-30T22:21:14.912Z,2.70
2022-11-30T22:23:43.731Z,2.70
2022-11-30T22:26:13.045Z,2.70
2022-11-30T22:28:41.659Z,2.70
2022-11-30T22:31:10.700Z,2.80
2022-11-30T22:33:39.159Z,2.70
2022-11-30T22:36:07.774Z,2.80
2022-11-30T22:38:37.002Z,2.90
2022-11-30T22:41:05.782Z,2.80
2022-11-30T22:43:33.731Z,2.60
2022-11-30T22:46:06.103Z,2.70
2022-11-30T22:48:34.258Z,2.80
2022-11-30T22:51:06.122Z,3.10
2022-11-30T22:53:34.907Z,2.80
2022-11-30T22:56:05.051Z,2.90
2022-11-30T22:58:33.095Z,2.80
2022-11-30T23:01:07.611Z,2.80
2022-11-30T23:03:35.555Z,2.80
2022-11-30T23:06:03.551Z,2.60
2022-11-30T23:08:31.478Z,2.60
2022-11-30T23:10:59.411Z,2.80
2022-11-30T23:13:28.683Z,2.60
2022-11-30T23:15:59.140Z,2.70
2022-11-30T23:18:27.637Z,2.70
2022-11-30T23:20:55.878Z,2.70
2022-11-30T23:23:23.848Z,2.80
2022-11-30T23:25:51.800Z,2.80
2022-11-30T23:28:19.689Z,2.90
2022-11-30T23:30:48.934Z,2.80
2022-11-30T23:33:16.799Z,2.80
2022-11-30T23:35:44.736Z,2.80
2022-11-30T23:38:12.731Z,2.80
2022-11-30T23:40:40.620Z,2.70
2022-11-30T23:43:08.492Z,2.70
2022-11-30T23:45:36.380Z,2.70
2022-11-30T23:48:05.892Z,2.60
2022-11-30T23:50:33.754Z,2.70
2022-11-30T23:53:01.626Z,2.70
2022-11-30T23:55:29.651Z,2.80
2022-11-30T23:57:57.552Z,2.80
